sensor_id;sensor_type;location;lat;lon;timestamp;P1;durP1;ratioP1;P2;durP2;ratioP2
71975;SDS011;68326;52.124;5.424;2023-03-14T00:01:07;12.35;;;2.40;;
71975;SDS011;68326;52.124;5.424;2023-03-14T00:03:34;10.55;;;2.30;;
71975;SDS011;68326;52.124;5.424;2023-03-14T00:06:02;9.40;;;2.65;;
71975;SDS011;68326;52.124;5.424;2023-03-14T00:08:29;10.17;;;2.50;;
71975;SDS011;68326;52.124;5.424;2023-03-14T00:10:55;11.15;;;2.60;;
71975;SDS011;68326;52.124;5.424;2023-03-14T00:13:24;12.57;;;2.72;;
71975;SDS011;68326;52.124;5.424;2023-03-14T00:15:50;14.55;;;2.33;;
71975;SDS011;68326;52.124;5.424;2023-03-14T00:18:17;10.90;;;2.05;;
71975;SDS011;68326;52.124;5.424;2023-03-14T00:20:45;13.07;;;1.87;;
71975;SDS011;68326;52.124;5.424;2023-03-14T00:23:12;8.68;;;1.75;;
71975;SDS011;68326;52.124;5.424;2023-03-14T00:25:38;10.05;;;1.30;;
71975;SDS011;68326;52.124;5.424;2023-03-14T00:28:05;6.30;;;1.27;;
71975;SDS011;68326;52.124;5.424;2023-03-14T00:30:31;10.95;;;1.65;;
71975;SDS011;68326;52.124;5.424;2023-03-14T00:32:58;10.27;;;1.93;;
71975;SDS011;68326;52.124;5.424;2023-03-14T00:35:24;5.28;;;1.70;;
71975;SDS011;68326;52.124;5.424;2023-03-14T00:37:51;6.15;;;0.93;;
71975;SDS011;68326;52.124;5.424;2023-03-14T00:40:17;9.32;;;1.40;;
71975;SDS011;68326;52.124;5.424;2023-03-14T00:42:44;7.30;;;0.75;;
71975;SDS011;68326;52.124;5.424;2023-03-14T00:45:10;11.57;;;1.50;;
71975;SDS011;68326;52.124;5.424;2023-03-14T00:47:37;5.88;;;1.10;;
71975;SDS011;68326;52.124;5.424;2023-03-14T00:50:03;9.82;;;0.98;;
71975;SDS011;68326;52.124;5.424;2023-03-14T00:52:30;8.40;;;0.95;;
71975;SDS011;68326;52.124;5.424;2023-03-14T00:54:57;6.60;;;1.13;;
71975;SDS011;68326;52.124;5.424;2023-03-14T00:57:23;7.53;;;0.77;;
71975;SDS011;68326;52.124;5.424;2023-03-14T00:59:50;6.15;;;0.50;;
71975;SDS011;68326;52.124;5.424;2023-03-14T01:02:17;6.32;;;0.98;;
71975;SDS011;68326;52.124;5.424;2023-03-14T01:04:44;8.70;;;0.70;;
71975;SDS011;68326;52.124;5.424;2023-03-14T01:07:10;8.05;;;1.38;;
71975;SDS011;68326;52.124;5.424;2023-03-14T01:09:37;4.90;;;0.57;;
71975;SDS011;68326;52.124;5.424;2023-03-14T01:12:03;6.97;;;0.60;;
71975;SDS011;68326;52.124;5.424;2023-03-14T01:14:30;3.25;;;0.60;;
71975;SDS011;68326;52.124;5.424;2023-03-14T01:16:57;5.97;;;0.47;;
71975;SDS011;68326;52.124;5.424;2023-03-14T01:19:27;5.72;;;0.70;;
71975;SDS011;68326;52.124;5.424;2023-03-14T01:21:54;4.53;;;0.50;;
71975;SDS011;68326;52.124;5.424;2023-03-14T01:24:20;5.10;;;0.60;;
71975;SDS011;68326;52.124;5.424;2023-03-14T01:26:47;3.03;;;0.57;;
71975;SDS011;68326;52.124;5.424;2023-03-14T01:29:13;4.22;;;1.02;;
71975;SDS011;68326;52.124;5.424;2023-03-14T01:31:40;5.32;;;0.60;;
71975;SDS011;68326;52.124;5.424;2023-03-14T01:34:06;7.80;;;0.47;;
71975;SDS011;68326;52.124;5.424;2023-03-14T01:36:33;3.38;;;0.45;;
71975;SDS011;68326;52.124;5.424;2023-03-14T01:38:59;4.78;;;0.50;;
71975;SDS011;68326;52.124;5.424;2023-03-14T01:41:26;4.93;;;0.70;;
71975;SDS011;68326;52.124;5.424;2023-03-14T01:43:53;1.65;;;0.17;;
71975;SDS011;68326;52.124;5.424;2023-03-14T01:48:54;6.70;;;0.43;;
71975;SDS011;68326;52.124;5.424;2023-03-14T01:51:35;6.38;;;0.60;;
71975;SDS011;68326;52.124;5.424;2023-03-14T01:54:11;5.22;;;0.57;;
71975;SDS011;68326;52.124;5.424;2023-03-14T01:56:57;3.78;;;0.30;;
71975;SDS011;68326;52.124;5.424;2023-03-14T01:59:31;7.87;;;0.40;;
71975;SDS011;68326;52.124;5.424;2023-03-14T02:01:58;5.60;;;0.45;;
71975;SDS011;68326;52.124;5.424;2023-03-14T02:04:26;8.07;;;0.47;;
71975;SDS011;68326;52.124;5.424;2023-03-14T02:06:59;6.45;;;0.95;;
71975;SDS011;68326;52.124;5.424;2023-03-14T02:09:30;5.45;;;0.50;;
71975;SDS011;68326;52.124;5.424;2023-03-14T02:11:56;6.30;;;0.57;;
71975;SDS011;68326;52.124;5.424;2023-03-14T02:14:26;9.50;;;0.60;;
71975;SDS011;68326;52.124;5.424;2023-03-14T02:16:56;5.43;;;0.60;;
71975;SDS011;68326;52.124;5.424;2023-03-14T02:19:26;6.30;;;0.80;;
71975;SDS011;68326;52.124;5.424;2023-03-14T02:22:05;4.78;;;0.40;;
71975;SDS011;68326;52.124;5.424;2023-03-14T02:24:46;5.40;;;0.70;;
71975;SDS011;68326;52.124;5.424;2023-03-14T02:27:34;5.13;;;0.30;;
71975;SDS011;68326;52.124;5.424;2023-03-14T02:30:03;3.33;;;0.40;;
71975;SDS011;68326;52.124;5.424;2023-03-14T02:32:36;6.53;;;0.85;;
71975;SDS011;68326;52.124;5.424;2023-03-14T02:35:06;2.65;;;0.45;;
71975;SDS011;68326;52.124;5.424;2023-03-14T02:37:46;3.57;;;0.30;;
71975;SDS011;68326;52.124;5.424;2023-03-14T02:40:16;3.35;;;0.50;;
71975;SDS011;68326;52.124;5.424;2023-03-14T02:42:43;4.85;;;0.40;;
71975;SDS011;68326;52.124;5.424;2023-03-14T02:47:37;4.75;;;0.50;;
71975;SDS011;68326;52.124;5.424;2023-03-14T02:50:09;3.90;;;0.40;;
71975;SDS011;68326;52.124;5.424;2023-03-14T02:52:39;3.97;;;0.80;;
71975;SDS011;68326;52.124;5.424;2023-03-14T02:55:05;4.72;;;0.88;;
71975;SDS011;68326;52.124;5.424;2023-03-14T02:57:32;3.40;;;0.52;;
71975;SDS011;68326;52.124;5.424;2023-03-14T02:59:59;4.88;;;0.80;;
71975;SDS011;68326;52.124;5.424;2023-03-14T03:02:29;5.30;;;0.57;;
71975;SDS011;68326;52.124;5.424;2023-03-14T03:04:55;5.25;;;0.70;;
71975;SDS011;68326;52.124;5.424;2023-03-14T03:07:22;5.63;;;0.70;;
71975;SDS011;68326;52.124;5.424;2023-03-14T03:09:48;6.45;;;0.52;;
71975;SDS011;68326;52.124;5.424;2023-03-14T03:12:15;6.10;;;0.70;;
71975;SDS011;68326;52.124;5.424;2023-03-14T03:14:41;5.30;;;0.47;;
71975;SDS011;68326;52.124;5.424;2023-03-14T03:17:07;8.07;;;0.80;;
71975;SDS011;68326;52.124;5.424;2023-03-14T03:19:34;4.72;;;0.88;;
71975;SDS011;68326;52.124;5.424;2023-03-14T03:22:01;2.92;;;0.80;;
71975;SDS011;68326;52.124;5.424;2023-03-14T03:24:27;4.28;;;0.60;;
71975;SDS011;68326;52.124;5.424;2023-03-14T03:26:54;2.33;;;0.50;;
71975;SDS011;68326;52.124;5.424;2023-03-14T03:29:21;4.20;;;0.52;;
71975;SDS011;68326;52.124;5.424;2023-03-14T03:31:47;5.68;;;1.10;;
71975;SDS011;68326;52.124;5.424;2023-03-14T03:34:14;4.50;;;0.80;;
71975;SDS011;68326;52.124;5.424;2023-03-14T03:36:41;5.70;;;0.88;;
71975;SDS011;68326;52.124;5.424;2023-03-14T03:39:08;6.50;;;0.70;;
71975;SDS011;68326;52.124;5.424;2023-03-14T03:41:34;2.58;;;0.50;;
71975;SDS011;68326;52.124;5.424;2023-03-14T03:44:01;5.20;;;0.75;;
71975;SDS011;68326;52.124;5.424;2023-03-14T03:46:27;4.05;;;0.68;;
71975;SDS011;68326;52.124;5.424;2023-03-14T03:48:57;5.78;;;0.90;;
71975;SDS011;68326;52.124;5.424;2023-03-14T03:51:25;4.73;;;0.57;;
71975;SDS011;68326;52.124;5.424;2023-03-14T03:53:51;8.18;;;0.90;;
71975;SDS011;68326;52.124;5.424;2023-03-14T03:56:18;6.20;;;0.65;;
71975;SDS011;68326;52.124;5.424;2023-03-14T03:58:44;8.85;;;0.57;;
71975;SDS011;68326;52.124;5.424;2023-03-14T04:01:11;3.35;;;0.30;;
71975;SDS011;68326;52.124;5.424;2023-03-14T04:03:37;5.97;;;0.63;;
71975;SDS011;68326;52.124;5.424;2023-03-14T04:06:06;4.88;;;1.05;;
71975;SDS011;68326;52.124;5.424;2023-03-14T04:08:38;6.90;;;1.10;;
71975;SDS011;68326;52.124;5.424;2023-03-14T04:11:06;3.40;;;0.60;;
71975;SDS011;68326;52.124;5.424;2023-03-14T04:13:33;5.15;;;0.80;;
71975;SDS011;68326;52.124;5.424;2023-03-14T04:15:59;7.60;;;0.70;;
71975;SDS011;68326;52.124;5.424;2023-03-14T04:18:26;4.15;;;0.40;;
71975;SDS011;68326;52.124;5.424;2023-03-14T04:20:54;6.35;;;1.05;;
71975;SDS011;68326;52.124;5.424;2023-03-14T04:23:22;4.35;;;0.57;;
71975;SDS011;68326;52.124;5.424;2023-03-14T04:25:50;6.57;;;1.00;;
71975;SDS011;68326;52.124;5.424;2023-03-14T04:28:18;5.50;;;0.40;;
71975;SDS011;68326;52.124;5.424;2023-03-14T04:30:44;5.47;;;0.88;;
71975;SDS011;68326;52.124;5.424;2023-03-14T04:33:11;4.35;;;0.40;;
71975;SDS011;68326;52.124;5.424;2023-03-14T04:35:38;6.90;;;0.80;;
71975;SDS011;68326;52.124;5.424;2023-03-14T04:38:05;6.65;;;0.60;;
71975;SDS011;68326;52.124;5.424;2023-03-14T04:40:31;8.97;;;0.90;;
71975;SDS011;68326;52.124;5.424;2023-03-14T04:42:58;7.53;;;0.77;;
71975;SDS011;68326;52.124;5.424;2023-03-14T04:45:24;7.18;;;0.70;;
71975;SDS011;68326;52.124;5.424;2023-03-14T04:47:51;7.43;;;1.05;;
71975;SDS011;68326;52.124;5.424;2023-03-14T04:50:17;7.47;;;0.65;;
71975;SDS011;68326;52.124;5.424;2023-03-14T04:52:44;6.67;;;0.70;;
71975;SDS011;68326;52.124;5.424;2023-03-14T04:55:10;4.38;;;0.70;;
71975;SDS011;68326;52.124;5.424;2023-03-14T04:57:37;5.45;;;0.68;;
71975;SDS011;68326;52.124;5.424;2023-03-14T05:00:04;5.85;;;0.85;;
71975;SDS011;68326;52.124;5.424;2023-03-14T05:02:34;4.90;;;0.80;;
71975;SDS011;68326;52.124;5.424;2023-03-14T05:05:01;9.47;;;1.00;;
71975;SDS011;68326;52.124;5.424;2023-03-14T05:07:27;4.75;;;0.70;;
71975;SDS011;68326;52.124;5.424;2023-03-14T05:09:54;7.15;;;0.80;;
71975;SDS011;68326;52.124;5.424;2023-03-14T05:12:20;6.88;;;0.70;;
71975;SDS011;68326;52.124;5.424;2023-03-14T05:14:47;3.45;;;0.40;;
71975;SDS011;68326;52.124;5.424;2023-03-14T05:17:13;5.70;;;0.53;;
71975;SDS011;68326;52.124;5.424;2023-03-14T05:19:41;4.80;;;0.60;;
71975;SDS011;68326;52.124;5.424;2023-03-14T05:22:07;10.75;;;1.10;;
71975;SDS011;68326;52.124;5.424;2023-03-14T05:24:34;2.83;;;0.50;;
71975;SDS011;68326;52.124;5.424;2023-03-14T05:27:00;2.40;;;0.60;;
71975;SDS011;68326;52.124;5.424;2023-03-14T05:29:27;4.67;;;0.60;;
71975;SDS011;68326;52.124;5.424;2023-03-14T05:31:53;5.85;;;1.08;;
71975;SDS011;68326;52.124;5.424;2023-03-14T05:34:20;5.72;;;1.10;;
71975;SDS011;68326;52.124;5.424;2023-03-14T05:36:47;4.95;;;0.65;;
71975;SDS011;68326;52.124;5.424;2023-03-14T05:39:13;5.00;;;0.63;;
71975;SDS011;68326;52.124;5.424;2023-03-14T05:41:39;4.07;;;0.90;;
71975;SDS011;68326;52.124;5.424;2023-03-14T05:44:06;5.20;;;0.60;;
71975;SDS011;68326;52.124;5.424;2023-03-14T05:46:32;2.47;;;0.63;;
71975;SDS011;68326;52.124;5.424;2023-03-14T05:48:59;2.65;;;0.70;;
71975;SDS011;68326;52.124;5.424;2023-03-14T05:51:26;2.65;;;0.57;;
71975;SDS011;68326;52.124;5.424;2023-03-14T05:53:52;2.70;;;0.63;;
71975;SDS011;68326;52.124;5.424;2023-03-14T05:56:19;4.30;;;0.95;;
71975;SDS011;68326;52.124;5.424;2023-03-14T05:58:45;3.13;;;0.90;;
71975;SDS011;68326;52.124;5.424;2023-03-14T06:01:12;4.47;;;0.63;;
71975;SDS011;68326;52.124;5.424;2023-03-14T06:03:38;5.57;;;1.13;;
71975;SDS011;68326;52.124;5.424;2023-03-14T06:06:05;3.70;;;1.20;;
71975;SDS011;68326;52.124;5.424;2023-03-14T06:08:32;5.82;;;1.10;;
71975;SDS011;68326;52.124;5.424;2023-03-14T06:10:58;4.97;;;1.13;;
71975;SDS011;68326;52.124;5.424;2023-03-14T06:13:25;5.03;;;0.95;;
71975;SDS011;68326;52.124;5.424;2023-03-14T06:15:51;3.13;;;1.08;;
71975;SDS011;68326;52.124;5.424;2023-03-14T06:18:18;5.07;;;1.20;;
71975;SDS011;68326;52.124;5.424;2023-03-14T06:20:44;5.18;;;1.40;;
71975;SDS011;68326;52.124;5.424;2023-03-14T06:23:11;3.50;;;1.33;;
71975;SDS011;68326;52.124;5.424;2023-03-14T06:25:37;4.30;;;1.33;;
71975;SDS011;68326;52.124;5.424;2023-03-14T06:28:04;4.80;;;1.63;;
71975;SDS011;68326;52.124;5.424;2023-03-14T06:30:30;7.77;;;1.70;;
71975;SDS011;68326;52.124;5.424;2023-03-14T06:32:57;4.00;;;1.60;;
71975;SDS011;68326;52.124;5.424;2023-03-14T06:35:23;9.02;;;1.95;;
71975;SDS011;68326;52.124;5.424;2023-03-14T06:37:50;5.47;;;1.55;;
71975;SDS011;68326;52.124;5.424;2023-03-14T06:40:17;6.60;;;2.00;;
71975;SDS011;68326;52.124;5.424;2023-03-14T06:42:44;3.10;;;1.20;;
71975;SDS011;68326;52.124;5.424;2023-03-14T06:45:11;3.97;;;1.17;;
71975;SDS011;68326;52.124;5.424;2023-03-14T06:47:38;2.63;;;0.80;;
71975;SDS011;68326;52.124;5.424;2023-03-14T06:50:08;3.83;;;0.90;;
71975;SDS011;68326;52.124;5.424;2023-03-14T06:52:36;1.20;;;0.50;;
71975;SDS011;68326;52.124;5.424;2023-03-14T06:55:03;2.97;;;0.40;;
71975;SDS011;68326;52.124;5.424;2023-03-14T06:57:30;0.50;;;0.20;;
71975;SDS011;68326;52.124;5.424;2023-03-14T06:59:56;2.58;;;0.20;;
71975;SDS011;68326;52.124;5.424;2023-03-14T07:02:22;0.80;;;0.10;;
71975;SDS011;68326;52.124;5.424;2023-03-14T07:05:05;0.45;;;0.10;;
71975;SDS011;68326;52.124;5.424;2023-03-14T07:07:32;1.17;;;0.00;;
71975;SDS011;68326;52.124;5.424;2023-03-14T07:09:58;0.82;;;0.10;;
71975;SDS011;68326;52.124;5.424;2023-03-14T07:12:25;1.83;;;0.10;;
71975;SDS011;68326;52.124;5.424;2023-03-14T07:14:51;0.38;;;0.10;;
71975;SDS011;68326;52.124;5.424;2023-03-14T07:17:18;0.65;;;0.10;;
71975;SDS011;68326;52.124;5.424;2023-03-14T07:19:44;0.63;;;0.20;;
71975;SDS011;68326;52.124;5.424;2023-03-14T07:22:11;1.75;;;0.17;;
71975;SDS011;68326;52.124;5.424;2023-03-14T07:24:37;2.33;;;0.85;;
71975;SDS011;68326;52.124;5.424;2023-03-14T07:27:03;1.05;;;0.20;;
71975;SDS011;68326;52.124;5.424;2023-03-14T07:29:30;0.85;;;0.20;;
71975;SDS011;68326;52.124;5.424;2023-03-14T07:31:57;0.97;;;0.10;;
71975;SDS011;68326;52.124;5.424;2023-03-14T07:34:23;1.00;;;0.20;;
71975;SDS011;68326;52.124;5.424;2023-03-14T07:36:50;2.05;;;0.45;;
71975;SDS011;68326;52.124;5.424;2023-03-14T07:39:16;0.50;;;0.10;;
71975;SDS011;68326;52.124;5.424;2023-03-14T07:41:42;1.80;;;0.10;;
71975;SDS011;68326;52.124;5.424;2023-03-14T07:44:09;2.97;;;0.20;;
71975;SDS011;68326;52.124;5.424;2023-03-14T07:46:35;0.47;;;0.20;;
71975;SDS011;68326;52.124;5.424;2023-03-14T07:49:02;0.95;;;0.10;;
71975;SDS011;68326;52.124;5.424;2023-03-14T07:51:28;1.23;;;0.45;;
71975;SDS011;68326;52.124;5.424;2023-03-14T07:53:55;1.23;;;0.20;;
71975;SDS011;68326;52.124;5.424;2023-03-14T07:56:21;2.30;;;0.10;;
71975;SDS011;68326;52.124;5.424;2023-03-14T07:58:48;1.70;;;0.10;;
71975;SDS011;68326;52.124;5.424;2023-03-14T08:01:14;0.50;;;0.10;;
71975;SDS011;68326;52.124;5.424;2023-03-14T08:03:41;2.17;;;0.25;;
71975;SDS011;68326;52.124;5.424;2023-03-14T08:06:07;1.05;;;0.00;;
71975;SDS011;68326;52.124;5.424;2023-03-14T08:08:34;3.63;;;0.10;;
71975;SDS011;68326;52.124;5.424;2023-03-14T08:11:04;2.28;;;0.10;;
71975;SDS011;68326;52.124;5.424;2023-03-14T08:13:32;2.72;;;0.10;;
71975;SDS011;68326;52.124;5.424;2023-03-14T08:15:58;2.65;;;0.10;;
71975;SDS011;68326;52.124;5.424;2023-03-14T08:18:25;2.45;;;0.20;;
71975;SDS011;68326;52.124;5.424;2023-03-14T08:20:51;4.33;;;0.10;;
71975;SDS011;68326;52.124;5.424;2023-03-14T08:23:18;3.70;;;0.32;;
71975;SDS011;68326;52.124;5.424;2023-03-14T08:25:44;0.52;;;0.00;;
71975;SDS011;68326;52.124;5.424;2023-03-14T08:28:12;2.58;;;0.20;;
71975;SDS011;68326;52.124;5.424;2023-03-14T08:30:39;3.90;;;0.10;;
71975;SDS011;68326;52.124;5.424;2023-03-14T08:33:05;3.03;;;0.10;;
71975;SDS011;68326;52.124;5.424;2023-03-14T08:35:32;1.40;;;0.25;;
71975;SDS011;68326;52.124;5.424;2023-03-14T08:37:58;7.03;;;0.10;;
71975;SDS011;68326;52.124;5.424;2023-03-14T08:40:24;2.05;;;0.05;;
71975;SDS011;68326;52.124;5.424;2023-03-14T08:42:51;2.30;;;0.45;;
71975;SDS011;68326;52.124;5.424;2023-03-14T08:45:17;4.20;;;0.10;;
71975;SDS011;68326;52.124;5.424;2023-03-14T08:47:44;1.40;;;0.10;;
71975;SDS011;68326;52.124;5.424;2023-03-14T08:50:11;1.95;;;0.00;;
71975;SDS011;68326;52.124;5.424;2023-03-14T08:52:41;1.17;;;0.08;;
71975;SDS011;68326;52.124;5.424;2023-03-14T08:55:08;1.52;;;0.10;;
71975;SDS011;68326;52.124;5.424;2023-03-14T08:57:35;2.93;;;0.67;;
71975;SDS011;68326;52.124;5.424;2023-03-14T09:00:03;4.22;;;0.20;;
71975;SDS011;68326;52.124;5.424;2023-03-14T09:02:39;2.08;;;0.30;;
71975;SDS011;68326;52.124;5.424;2023-03-14T09:05:06;3.88;;;0.57;;
71975;SDS011;68326;52.124;5.424;2023-03-14T09:07:33;4.53;;;0.22;;
71975;SDS011;68326;52.124;5.424;2023-03-14T09:10:00;4.00;;;0.20;;
71975;SDS011;68326;52.124;5.424;2023-03-14T09:12:26;2.65;;;0.28;;
71975;SDS011;68326;52.124;5.424;2023-03-14T09:14:53;4.85;;;0.20;;
71975;SDS011;68326;52.124;5.424;2023-03-14T09:17:19;6.10;;;0.40;;
71975;SDS011;68326;52.124;5.424;2023-03-14T09:19:46;2.25;;;0.25;;
71975;SDS011;68326;52.124;5.424;2023-03-14T09:22:12;5.13;;;0.23;;
71975;SDS011;68326;52.124;5.424;2023-03-14T09:24:39;6.07;;;0.20;;
71975;SDS011;68326;52.124;5.424;2023-03-14T09:27:06;4.88;;;0.25;;
71975;SDS011;68326;52.124;5.424;2023-03-14T09:29:34;6.20;;;0.25;;
71975;SDS011;68326;52.124;5.424;2023-03-14T09:32:00;5.60;;;0.70;;
71975;SDS011;68326;52.124;5.424;2023-03-14T09:34:27;10.13;;;0.37;;
71975;SDS011;68326;52.124;5.424;2023-03-14T09:36:53;5.45;;;0.68;;
71975;SDS011;68326;52.124;5.424;2023-03-14T09:39:20;4.22;;;0.30;;
71975;SDS011;68326;52.124;5.424;2023-03-14T09:41:47;5.03;;;0.47;;
71975;SDS011;68326;52.124;5.424;2023-03-14T09:44:19;5.40;;;0.20;;
71975;SDS011;68326;52.124;5.424;2023-03-14T09:46:52;5.80;;;0.30;;
71975;SDS011;68326;52.124;5.424;2023-03-14T09:49:25;4.63;;;0.13;;
71975;SDS011;68326;52.124;5.424;2023-03-14T09:51:55;6.75;;;0.50;;
71975;SDS011;68326;52.124;5.424;2023-03-14T09:54:58;7.45;;;0.40;;
71975;SDS011;68326;52.124;5.424;2023-03-14T09:57:18;7.35;;;0.40;;
71975;SDS011;68326;52.124;5.424;2023-03-14T09:59:48;9.90;;;0.63;;
71975;SDS011;68326;52.124;5.424;2023-03-14T10:02:20;9.18;;;0.82;;
71975;SDS011;68326;52.124;5.424;2023-03-14T10:04:49;6.10;;;0.40;;
71975;SDS011;68326;52.124;5.424;2023-03-14T10:07:19;9.07;;;0.32;;
71975;SDS011;68326;52.124;5.424;2023-03-14T10:09:51;8.57;;;0.70;;
71975;SDS011;68326;52.124;5.424;2023-03-14T10:12:18;18.90;;;1.10;;
71975;SDS011;68326;52.124;5.424;2023-03-14T10:14:51;9.32;;;0.80;;
71975;SDS011;68326;52.124;5.424;2023-03-14T10:17:19;8.80;;;0.73;;
71975;SDS011;68326;52.124;5.424;2023-03-14T10:22:24;10.25;;;0.43;;
71975;SDS011;68326;52.124;5.424;2023-03-14T10:24:55;6.40;;;0.30;;
71975;SDS011;68326;52.124;5.424;2023-03-14T10:27:32;6.00;;;0.40;;
71975;SDS011;68326;52.124;5.424;2023-03-14T10:30:02;7.32;;;0.47;;
71975;SDS011;68326;52.124;5.424;2023-03-14T10:32:35;8.98;;;0.88;;
71975;SDS011;68326;52.124;5.424;2023-03-14T10:37:35;4.87;;;0.50;;
71975;SDS011;68326;52.124;5.424;2023-03-14T10:40:02;9.65;;;0.75;;
71975;SDS011;68326;52.124;5.424;2023-03-14T10:42:33;11.00;;;0.82;;
71975;SDS011;68326;52.124;5.424;2023-03-14T10:45:06;9.25;;;0.50;;
71975;SDS011;68326;52.124;5.424;2023-03-14T10:47:49;12.07;;;0.70;;
71975;SDS011;68326;52.124;5.424;2023-03-14T10:50:30;7.63;;;0.40;;
71975;SDS011;68326;52.124;5.424;2023-03-14T10:52:59;7.80;;;0.95;;
71975;SDS011;68326;52.124;5.424;2023-03-14T10:55:41;14.25;;;1.67;;
71975;SDS011;68326;52.124;5.424;2023-03-14T10:58:28;15.07;;;1.10;;
71975;SDS011;68326;52.124;5.424;2023-03-14T11:01:04;13.00;;;0.75;;
71975;SDS011;68326;52.124;5.424;2023-03-14T11:03:45;15.33;;;1.00;;
71975;SDS011;68326;52.124;5.424;2023-03-14T11:06:23;10.10;;;1.00;;
71975;SDS011;68326;52.124;5.424;2023-03-14T11:09:02;8.15;;;0.82;;
71975;SDS011;68326;52.124;5.424;2023-03-14T11:11:47;8.00;;;0.68;;
71975;SDS011;68326;52.124;5.424;2023-03-14T11:14:23;6.47;;;0.50;;
71975;SDS011;68326;52.124;5.424;2023-03-14T11:22:26;15.68;;;1.38;;
71975;SDS011;68326;52.124;5.424;2023-03-14T11:25:12;6.68;;;0.75;;
71975;SDS011;68326;52.124;5.424;2023-03-14T11:28:10;13.13;;;0.82;;
71975;SDS011;68326;52.124;5.424;2023-03-14T11:30:53;7.77;;;0.67;;
71975;SDS011;68326;52.124;5.424;2023-03-14T11:33:22;7.50;;;0.85;;
71975;SDS011;68326;52.124;5.424;2023-03-14T11:38:48;6.45;;;0.52;;
71975;SDS011;68326;52.124;5.424;2023-03-14T11:41:20;4.22;;;0.40;;
71975;SDS011;68326;52.124;5.424;2023-03-14T11:43:54;7.90;;;0.50;;
71975;SDS011;68326;52.124;5.424;2023-03-14T11:46:24;8.00;;;0.30;;
71975;SDS011;68326;52.124;5.424;2023-03-14T11:49:01;7.63;;;1.05;;
71975;SDS011;68326;52.124;5.424;2023-03-14T11:51:41;7.60;;;0.63;;
71975;SDS011;68326;52.124;5.424;2023-03-14T11:57:15;10.10;;;0.73;;
71975;SDS011;68326;52.124;5.424;2023-03-14T11:59:51;5.78;;;0.55;;
71975;SDS011;68326;52.124;5.424;2023-03-14T12:13:16;6.97;;;0.52;;
71975;SDS011;68326;52.124;5.424;2023-03-14T12:15:54;5.47;;;0.30;;
71975;SDS011;68326;52.124;5.424;2023-03-14T12:18:32;5.20;;;0.40;;
71975;SDS011;68326;52.124;5.424;2023-03-14T12:21:01;6.45;;;0.63;;
71975;SDS011;68326;52.124;5.424;2023-03-14T12:23:39;11.97;;;0.73;;
71975;SDS011;68326;52.124;5.424;2023-03-14T12:28:39;6.75;;;0.43;;
71975;SDS011;68326;52.124;5.424;2023-03-14T12:34:02;8.35;;;0.40;;
71975;SDS011;68326;52.124;5.424;2023-03-14T12:39:25;5.43;;;0.40;;
71975;SDS011;68326;52.124;5.424;2023-03-14T12:42:35;3.63;;;0.40;;
71975;SDS011;68326;52.124;5.424;2023-03-14T12:45:23;5.80;;;0.30;;
71975;SDS011;68326;52.124;5.424;2023-03-14T12:58:54;6.68;;;0.20;;
71975;SDS011;68326;52.124;5.424;2023-03-14T13:01:31;4.00;;;0.45;;
71975;SDS011;68326;52.124;5.424;2023-03-14T13:04:03;5.50;;;0.53;;
71975;SDS011;68326;52.124;5.424;2023-03-14T13:06:52;3.92;;;0.20;;
71975;SDS011;68326;52.124;5.424;2023-03-14T13:11:55;3.72;;;0.30;;
71975;SDS011;68326;52.124;5.424;2023-03-14T13:14:27;3.70;;;0.20;;
71975;SDS011;68326;52.124;5.424;2023-03-14T13:16:55;5.03;;;0.20;;
71975;SDS011;68326;52.124;5.424;2023-03-14T13:19:45;4.32;;;0.30;;
71975;SDS011;68326;52.124;5.424;2023-03-14T13:22:25;8.10;;;0.52;;
71975;SDS011;68326;52.124;5.424;2023-03-14T13:25:05;2.90;;;0.22;;
71975;SDS011;68326;52.124;5.424;2023-03-14T13:27:34;5.78;;;0.20;;
71975;SDS011;68326;52.124;5.424;2023-03-14T13:30:05;4.60;;;0.20;;
71975;SDS011;68326;52.124;5.424;2023-03-14T13:32:42;3.30;;;0.17;;
71975;SDS011;68326;52.124;5.424;2023-03-14T13:35:17;4.00;;;0.20;;
71975;SDS011;68326;52.124;5.424;2023-03-14T13:37:55;2.40;;;0.55;;
71975;SDS011;68326;52.124;5.424;2023-03-14T13:40:36;5.40;;;0.30;;
71975;SDS011;68326;52.124;5.424;2023-03-14T13:43:05;5.30;;;0.20;;
71975;SDS011;68326;52.124;5.424;2023-03-14T13:45:48;7.03;;;1.45;;
71975;SDS011;68326;52.124;5.424;2023-03-14T13:48:16;2.97;;;0.38;;
71975;SDS011;68326;52.124;5.424;2023-03-14T13:50:51;2.65;;;0.20;;
71975;SDS011;68326;52.124;5.424;2023-03-14T13:53:20;3.25;;;0.20;;
71975;SDS011;68326;52.124;5.424;2023-03-14T13:55:47;2.47;;;0.20;;
71975;SDS011;68326;52.124;5.424;2023-03-14T13:58:34;5.13;;;0.28;;
71975;SDS011;68326;52.124;5.424;2023-03-14T14:01:13;3.63;;;0.60;;
71975;SDS011;68326;52.124;5.424;2023-03-14T14:03:44;5.53;;;0.28;;
71975;SDS011;68326;52.124;5.424;2023-03-14T14:08:49;6.17;;;0.93;;
71975;SDS011;68326;52.124;5.424;2023-03-14T14:11:21;6.65;;;0.60;;
71975;SDS011;68326;52.124;5.424;2023-03-14T14:14:14;4.80;;;0.25;;
71975;SDS011;68326;52.124;5.424;2023-03-14T14:16:53;4.78;;;0.30;;
71975;SDS011;68326;52.124;5.424;2023-03-14T14:19:21;4.10;;;0.20;;
71975;SDS011;68326;52.124;5.424;2023-03-14T14:21:51;4.17;;;0.30;;
71975;SDS011;68326;52.124;5.424;2023-03-14T14:24:18;3.33;;;0.10;;
71975;SDS011;68326;52.124;5.424;2023-03-14T14:26:58;5.13;;;0.30;;
71975;SDS011;68326;52.124;5.424;2023-03-14T14:29:30;3.30;;;0.40;;
71975;SDS011;68326;52.124;5.424;2023-03-14T14:34:41;7.27;;;0.30;;
71975;SDS011;68326;52.124;5.424;2023-03-14T14:37:21;5.10;;;0.30;;
71975;SDS011;68326;52.124;5.424;2023-03-14T14:39:54;4.38;;;0.20;;
71975;SDS011;68326;52.124;5.424;2023-03-14T14:42:30;5.65;;;0.20;;
71975;SDS011;68326;52.124;5.424;2023-03-14T14:44:57;4.32;;;0.40;;
71975;SDS011;68326;52.124;5.424;2023-03-14T14:47:25;4.73;;;0.30;;
71975;SDS011;68326;52.124;5.424;2023-03-14T14:49:54;2.38;;;0.10;;
71975;SDS011;68326;52.124;5.424;2023-03-14T14:52:37;2.28;;;0.32;;
71975;SDS011;68326;52.124;5.424;2023-03-14T14:55:11;3.10;;;0.30;;
71975;SDS011;68326;52.124;5.424;2023-03-14T14:57:51;2.67;;;0.20;;
71975;SDS011;68326;52.124;5.424;2023-03-14T15:00:20;2.20;;;0.33;;
71975;SDS011;68326;52.124;5.424;2023-03-14T15:02:50;3.83;;;0.20;;
71975;SDS011;68326;52.124;5.424;2023-03-14T15:05:24;2.53;;;0.20;;
71975;SDS011;68326;52.124;5.424;2023-03-14T15:07:53;3.08;;;0.20;;
71975;SDS011;68326;52.124;5.424;2023-03-14T15:10:20;3.60;;;0.20;;
71975;SDS011;68326;52.124;5.424;2023-03-14T15:12:49;4.57;;;0.50;;
71975;SDS011;68326;52.124;5.424;2023-03-14T15:15:16;2.22;;;0.45;;
71975;SDS011;68326;52.124;5.424;2023-03-14T15:17:43;4.03;;;0.28;;
71975;SDS011;68326;52.124;5.424;2023-03-14T15:20:11;2.45;;;0.47;;
71975;SDS011;68326;52.124;5.424;2023-03-14T15:22:40;2.20;;;0.30;;
71975;SDS011;68326;52.124;5.424;2023-03-14T15:25:07;3.67;;;0.30;;
71975;SDS011;68326;52.124;5.424;2023-03-14T15:27:43;1.77;;;0.20;;
71975;SDS011;68326;52.124;5.424;2023-03-14T15:30:14;4.78;;;0.38;;
71975;SDS011;68326;52.124;5.424;2023-03-14T15:32:41;4.32;;;0.20;;
71975;SDS011;68326;52.124;5.424;2023-03-14T15:35:08;5.30;;;0.50;;
71975;SDS011;68326;52.124;5.424;2023-03-14T15:37:35;2.37;;;0.20;;
71975;SDS011;68326;52.124;5.424;2023-03-14T15:40:03;2.95;;;0.30;;
71975;SDS011;68326;52.124;5.424;2023-03-14T15:42:37;3.10;;;0.15;;
71975;SDS011;68326;52.124;5.424;2023-03-14T15:45:04;4.85;;;0.30;;
71975;SDS011;68326;52.124;5.424;2023-03-14T15:47:31;6.25;;;0.20;;
71975;SDS011;68326;52.124;5.424;2023-03-14T15:49:58;2.37;;;0.20;;
71975;SDS011;68326;52.124;5.424;2023-03-14T15:52:24;3.20;;;0.20;;
71975;SDS011;68326;52.124;5.424;2023-03-14T15:54:51;5.03;;;0.40;;
71975;SDS011;68326;52.124;5.424;2023-03-14T15:57:17;1.73;;;0.30;;
71975;SDS011;68326;52.124;5.424;2023-03-14T15:59:44;3.15;;;0.52;;